sensor_id;sensor_type;location;lat;lon;timestamp;temperature;humidity
1592;DHT22;789;51.612;7.510;2023-09-18T00:00:58;22.20;1.00
1592;DHT22;789;51.612;7.510;2023-09-18T00:03:28;22.20;1.00
1592;DHT22;789;51.612;7.510;2023-09-18T00:05:56;22.20;1.00
1592;DHT22;789;51.612;7.510;2023-09-18T00:08:23;22.10;1.00
1592;DHT22;789;51.612;7.510;2023-09-18T00:10:52;22.10;1.00
1592;DHT22;789;51.612;7.510;2023-09-18T00:13:19;22.10;1.00
1592;DHT22;789;51.612;7.510;2023-09-18T00:15:46;22.10;1.00
1592;DHT22;789;51.612;7.510;2023-09-18T00:18:13;22.10;1.00
1592;DHT22;789;51.612;7.510;2023-09-18T00:20:40;22.00;1.00
1592;DHT22;789;51.612;7.510;2023-09-18T00:23:11;22.10;1.00
1592;DHT22;789;51.612;7.510;2023-09-18T00:25:38;21.90;1.00
1592;DHT22;789;51.612;7.510;2023-09-18T00:28:06;21.90;1.00
1592;DHT22;789;51.612;7.510;2023-09-18T00:30:33;21.90;1.00
1592;DHT22;789;51.612;7.510;2023-09-18T00:33:00;21.80;1.00
1592;DHT22;789;51.612;7.510;2023-09-18T00:35:26;21.80;1.00
1592;DHT22;789;51.612;7.510;2023-09-18T00:37:53;21.70;1.00
1592;DHT22;789;51.612;7.510;2023-09-18T00:40:22;21.60;1.00
1592;DHT22;789;51.612;7.510;2023-09-18T00:42:49;21.60;1.00
1592;DHT22;789;51.612;7.510;2023-09-18T00:45:20;21.50;1.00
1592;DHT22;789;51.612;7.510;2023-09-18T00:47:46;21.60;1.00
1592;DHT22;789;51.612;7.510;2023-09-18T00:50:14;21.50;1.00
1592;DHT22;789;51.612;7.510;2023-09-18T00:52:41;21.50;1.00
1592;DHT22;789;51.612;7.510;2023-09-18T00:55:08;21.50;1.00
1592;DHT22;789;51.612;7.510;2023-09-18T00:57:38;21.50;1.00
1592;DHT22;789;51.612;7.510;2023-09-18T01:00:06;21.50;1.00
1592;DHT22;789;51.612;7.510;2023-09-18T01:02:34;21.50;1.00
1592;DHT22;789;51.612;7.510;2023-09-18T01:05:01;21.50;1.00
1592;DHT22;789;51.612;7.510;2023-09-18T01:07:28;21.50;1.00
1592;DHT22;789;51.612;7.510;2023-09-18T01:09:55;21.50;1.00
1592;DHT22;789;51.612;7.510;2023-09-18T01:12:26;21.50;1.00
1592;DHT22;789;51.612;7.510;2023-09-18T01:15:02;21.50;1.00
1592;DHT22;789;51.612;7.510;2023-09-18T01:17:35;21.50;1.00
1592;DHT22;789;51.612;7.510;2023-09-18T01:20:04;21.50;1.00
1592;DHT22;789;51.612;7.510;2023-09-18T01:22:33;21.50;1.00
1592;DHT22;789;51.612;7.510;2023-09-18T01:25:00;21.50;1.00
1592;DHT22;789;51.612;7.510;2023-09-18T01:27:26;21.50;1.00
1592;DHT22;789;51.612;7.510;2023-09-18T01:29:53;21.50;1.00
1592;DHT22;789;51.612;7.510;2023-09-18T01:32:21;21.40;1.00
1592;DHT22;789;51.612;7.510;2023-09-18T01:34:55;21.40;1.00
1592;DHT22;789;51.612;7.510;2023-09-18T01:37:24;21.40;1.00
1592;DHT22;789;51.612;7.510;2023-09-18T01:39:53;21.30;1.00
1592;DHT22;789;51.612;7.510;2023-09-18T01:42:23;21.30;1.00
1592;DHT22;789;51.612;7.510;2023-09-18T01:44:52;21.30;1.00
1592;DHT22;789;51.612;7.510;2023-09-18T01:47:30;21.30;1.00
1592;DHT22;789;51.612;7.510;2023-09-18T01:49:57;21.30;1.00
1592;DHT22;789;51.612;7.510;2023-09-18T01:52:24;21.30;1.00
1592;DHT22;789;51.612;7.510;2023-09-18T01:54:53;21.30;1.00
1592;DHT22;789;51.612;7.510;2023-09-18T01:57:20;21.30;1.00
1592;DHT22;789;51.612;7.510;2023-09-18T01:59:46;21.30;1.00
1592;DHT22;789;51.612;7.510;2023-09-18T02:02:13;21.30;1.00
1592;DHT22;789;51.612;7.510;2023-09-18T02:04:41;21.30;1.00
1592;DHT22;789;51.612;7.510;2023-09-18T02:07:08;21.30;1.00
1592;DHT22;789;51.612;7.510;2023-09-18T02:09:35;21.30;1.00
1592;DHT22;789;51.612;7.510;2023-09-18T02:12:04;21.20;1.00
1592;DHT22;789;51.612;7.510;2023-09-18T02:14:31;21.20;1.00
1592;DHT22;789;51.612;7.510;2023-09-18T02:16:59;21.20;1.00
1592;DHT22;789;51.612;7.510;2023-09-18T02:19:26;21.20;1.00
1592;DHT22;789;51.612;7.510;2023-09-18T02:21:56;21.30;1.00
1592;DHT22;789;51.612;7.510;2023-09-18T02:24:22;21.30;1.00
1592;DHT22;789;51.612;7.510;2023-09-18T02:26:49;21.30;1.00
1592;DHT22;789;51.612;7.510;2023-09-18T02:29:17;21.30;1.00
1592;DHT22;789;51.612;7.510;2023-09-18T02:31:44;21.30;1.00
1592;DHT22;789;51.612;7.510;2023-09-18T02:34:11;21.30;1.00
1592;DHT22;789;51.612;7.510;2023-09-18T02:36:38;21.30;1.00
1592;DHT22;789;51.612;7.510;2023-09-18T02:39:05;21.30;1.00
1592;DHT22;789;51.612;7.510;2023-09-18T02:41:31;21.30;1.00
1592;DHT22;789;51.612;7.510;2023-09-18T02:43:58;21.30;1.00
1592;DHT22;789;51.612;7.510;2023-09-18T02:46:27;21.30;1.00
1592;DHT22;789;51.612;7.510;2023-09-18T02:48:54;21.30;1.00
1592;DHT22;789;51.612;7.510;2023-09-18T02:51:22;21.30;1.00
1592;DHT22;789;51.612;7.510;2023-09-18T02:53:49;21.30;1.00
1592;DHT22;789;51.612;7.510;2023-09-18T02:56:15;21.30;1.00
1592;DHT22;789;51.612;7.510;2023-09-18T02:58:42;21.40;1.00
1592;DHT22;789;51.612;7.510;2023-09-18T03:01:09;21.30;1.00
1592;DHT22;789;51.612;7.510;2023-09-18T03:03:37;21.30;1.00
1592;DHT22;789;51.612;7.510;2023-09-18T03:06:04;21.30;1.00
1592;DHT22;789;51.612;7.510;2023-09-18T03:08:32;21.40;1.00
1592;DHT22;789;51.612;7.510;2023-09-18T03:10:59;21.40;1.00
1592;DHT22;789;51.612;7.510;2023-09-18T03:13:26;21.40;1.00
1592;DHT22;789;51.612;7.510;2023-09-18T03:15:54;21.30;1.00
1592;DHT22;789;51.612;7.510;2023-09-18T03:18:21;21.30;1.00
1592;DHT22;789;51.612;7.510;2023-09-18T03:20:50;21.30;1.00
1592;DHT22;789;51.612;7.510;2023-09-18T03:23:16;21.30;1.00
1592;DHT22;789;51.612;7.510;2023-09-18T03:25:44;21.30;1.00
1592;DHT22;789;51.612;7.510;2023-09-18T03:28:11;21.30;1.00
1592;DHT22;789;51.612;7.510;2023-09-18T03:30:38;21.40;1.00
1592;DHT22;789;51.612;7.510;2023-09-18T03:33:05;21.40;1.00
1592;DHT22;789;51.612;7.510;2023-09-18T03:35:32;21.40;1.00
1592;DHT22;789;51.612;7.510;2023-09-18T03:38:00;21.30;1.00
1592;DHT22;789;51.612;7.510;2023-09-18T03:40:27;21.30;1.00
1592;DHT22;789;51.612;7.510;2023-09-18T03:42:54;21.30;1.00
1592;DHT22;789;51.612;7.510;2023-09-18T03:45:21;21.30;1.00
1592;DHT22;789;51.612;7.510;2023-09-18T03:47:48;21.30;1.00
1592;DHT22;789;51.612;7.510;2023-09-18T03:50:15;21.40;1.00
1592;DHT22;789;51.612;7.510;2023-09-18T03:52:42;21.40;1.00
1592;DHT22;789;51.612;7.510;2023-09-18T03:55:10;21.40;1.00
1592;DHT22;789;51.612;7.510;2023-09-18T03:57:39;21.30;1.00
1592;DHT22;789;51.612;7.510;2023-09-18T04:00:07;21.30;1.00
1592;DHT22;789;51.612;7.510;2023-09-18T04:02:34;21.20;1.00
1592;DHT22;789;51.612;7.510;2023-09-18T04:05:01;21.30;1.00
1592;DHT22;789;51.612;7.510;2023-09-18T04:07:29;21.30;1.00
1592;DHT22;789;51.612;7.510;2023-09-18T04:09:56;21.40;1.00
1592;DHT22;789;51.612;7.510;2023-09-18T04:12:25;21.50;1.00
1592;DHT22;789;51.612;7.510;2023-09-18T04:14:52;21.50;1.00
1592;DHT22;789;51.612;7.510;2023-09-18T04:17:19;21.60;1.00
1592;DHT22;789;51.612;7.510;2023-09-18T04:19:46;21.70;1.00
1592;DHT22;789;51.612;7.510;2023-09-18T04:22:13;21.80;1.00
1592;DHT22;789;51.612;7.510;2023-09-18T04:24:40;21.80;1.00
1592;DHT22;789;51.612;7.510;2023-09-18T04:27:07;21.90;1.00
1592;DHT22;789;51.612;7.510;2023-09-18T04:29:35;22.00;1.00
1592;DHT22;789;51.612;7.510;2023-09-18T04:32:03;22.00;1.00
1592;DHT22;789;51.612;7.510;2023-09-18T04:34:30;22.10;1.00
1592;DHT22;789;51.612;7.510;2023-09-18T04:37:00;22.10;1.00
1592;DHT22;789;51.612;7.510;2023-09-18T04:39:29;22.10;1.00
1592;DHT22;789;51.612;7.510;2023-09-18T04:41:56;22.10;1.00
1592;DHT22;789;51.612;7.510;2023-09-18T04:44:23;22.20;1.00
1592;DHT22;789;51.612;7.510;2023-09-18T04:46:52;22.20;1.00
1592;DHT22;789;51.612;7.510;2023-09-18T04:49:19;22.30;1.00
1592;DHT22;789;51.612;7.510;2023-09-18T04:51:51;22.30;1.00
1592;DHT22;789;51.612;7.510;2023-09-18T04:54:18;22.40;1.00
1592;DHT22;789;51.612;7.510;2023-09-18T04:56:45;22.40;1.00
1592;DHT22;789;51.612;7.510;2023-09-18T04:59:12;22.40;1.00
1592;DHT22;789;51.612;7.510;2023-09-18T05:01:40;22.40;1.00
1592;DHT22;789;51.612;7.510;2023-09-18T05:04:09;22.40;1.00
1592;DHT22;789;51.612;7.510;2023-09-18T05:06:37;22.40;1.00
1592;DHT22;789;51.612;7.510;2023-09-18T05:09:05;22.50;1.00
1592;DHT22;789;51.612;7.510;2023-09-18T05:11:31;22.50;1.00
1592;DHT22;789;51.612;7.510;2023-09-18T05:13:58;22.60;1.00
1592;DHT22;789;51.612;7.510;2023-09-18T05:16:25;22.50;1.00
1592;DHT22;789;51.612;7.510;2023-09-18T05:18:52;22.30;1.00
1592;DHT22;789;51.612;7.510;2023-09-18T05:21:20;22.30;1.00
1592;DHT22;789;51.612;7.510;2023-09-18T05:23:52;22.30;1.00
1592;DHT22;789;51.612;7.510;2023-09-18T05:26:27;22.30;1.00
1592;DHT22;789;51.612;7.510;2023-09-18T05:28:55;22.30;1.00
1592;DHT22;789;51.612;7.510;2023-09-18T05:31:22;22.30;1.00
1592;DHT22;789;51.612;7.510;2023-09-18T05:33:49;22.40;1.00
1592;DHT22;789;51.612;7.510;2023-09-18T05:36:16;22.40;1.00
1592;DHT22;789;51.612;7.510;2023-09-18T05:38:45;22.30;1.00
1592;DHT22;789;51.612;7.510;2023-09-18T05:41:16;22.30;1.00
1592;DHT22;789;51.612;7.510;2023-09-18T05:43:45;22.30;1.00
1592;DHT22;789;51.612;7.510;2023-09-18T05:46:12;22.20;1.00
1592;DHT22;789;51.612;7.510;2023-09-18T05:48:39;22.20;1.00
1592;DHT22;789;51.612;7.510;2023-09-18T05:51:06;22.20;1.00
1592;DHT22;789;51.612;7.510;2023-09-18T05:53:32;22.30;1.00
1592;DHT22;789;51.612;7.510;2023-09-18T05:56:11;22.30;1.00
1592;DHT22;789;51.612;7.510;2023-09-18T05:58:37;22.30;1.00
1592;DHT22;789;51.612;7.510;2023-09-18T06:01:05;22.30;1.00
1592;DHT22;789;51.612;7.510;2023-09-18T06:03:33;22.30;1.00
1592;DHT22;789;51.612;7.510;2023-09-18T06:06:01;22.30;1.00
1592;DHT22;789;51.612;7.510;2023-09-18T06:08:28;22.30;1.00
1592;DHT22;789;51.612;7.510;2023-09-18T06:10:55;22.40;1.00
1592;DHT22;789;51.612;7.510;2023-09-18T06:13:25;22.40;1.00
1592;DHT22;789;51.612;7.510;2023-09-18T06:15:52;22.40;1.00
1592;DHT22;789;51.612;7.510;2023-09-18T06:18:20;22.60;1.00
1592;DHT22;789;51.612;7.510;2023-09-18T06:20:47;22.50;1.00
1592;DHT22;789;51.612;7.510;2023-09-18T06:23:13;22.50;1.00
1592;DHT22;789;51.612;7.510;2023-09-18T06:25:42;22.30;1.00
1592;DHT22;789;51.612;7.510;2023-09-18T06:28:13;22.70;1.00
1592;DHT22;789;51.612;7.510;2023-09-18T06:30:41;22.80;1.00
1592;DHT22;789;51.612;7.510;2023-09-18T06:33:08;22.70;1.00
1592;DHT22;789;51.612;7.510;2023-09-18T06:35:36;22.70;1.00
1592;DHT22;789;51.612;7.510;2023-09-18T06:38:03;22.70;1.00
1592;DHT22;789;51.612;7.510;2023-09-18T06:40:34;22.60;1.00
1592;DHT22;789;51.612;7.510;2023-09-18T06:43:00;22.50;1.00
1592;DHT22;789;51.612;7.510;2023-09-18T06:45:27;22.50;1.00
1592;DHT22;789;51.612;7.510;2023-09-18T06:47:57;22.50;1.00
1592;DHT22;789;51.612;7.510;2023-09-18T06:50:26;22.50;1.00
1592;DHT22;789;51.612;7.510;2023-09-18T06:52:53;22.40;1.00
1592;DHT22;789;51.612;7.510;2023-09-18T06:55:20;22.40;1.00
1592;DHT22;789;51.612;7.510;2023-09-18T06:57:47;22.40;1.00
1592;DHT22;789;51.612;7.510;2023-09-18T07:00:16;22.30;1.00
1592;DHT22;789;51.612;7.510;2023-09-18T07:02:48;22.30;1.00
1592;DHT22;789;51.612;7.510;2023-09-18T07:05:17;22.30;1.00
1592;DHT22;789;51.612;7.510;2023-09-18T07:07:43;22.30;1.00
1592;DHT22;789;51.612;7.510;2023-09-18T07:10:10;22.40;1.00
1592;DHT22;789;51.612;7.510;2023-09-18T07:12:37;22.30;1.00
1592;DHT22;789;51.612;7.510;2023-09-18T07:15:06;22.30;1.00
1592;DHT22;789;51.612;7.510;2023-09-18T07:17:33;22.40;1.00
1592;DHT22;789;51.612;7.510;2023-09-18T07:20:01;22.50;1.00
1592;DHT22;789;51.612;7.510;2023-09-18T07:22:36;22.60;1.00
1592;DHT22;789;51.612;7.510;2023-09-18T07:25:04;22.70;1.00
1592;DHT22;789;51.612;7.510;2023-09-18T07:27:32;22.80;1.00
1592;DHT22;789;51.612;7.510;2023-09-18T07:29:59;22.70;1.00
1592;DHT22;789;51.612;7.510;2023-09-18T07:32:25;22.80;1.00
1592;DHT22;789;51.612;7.510;2023-09-18T07:34:53;22.80;1.00
1592;DHT22;789;51.612;7.510;2023-09-18T07:37:20;22.80;1.00
1592;DHT22;789;51.612;7.510;2023-09-18T07:39:49;22.90;1.00
1592;DHT22;789;51.612;7.510;2023-09-18T07:42:29;22.80;1.00
1592;DHT22;789;51.612;7.510;2023-09-18T07:45:06;22.90;1.00
1592;DHT22;789;51.612;7.510;2023-09-18T07:47:33;23.00;1.00
1592;DHT22;789;51.612;7.510;2023-09-18T07:50:00;23.00;1.00
1592;DHT22;789;51.612;7.510;2023-09-18T07:52:27;23.00;1.00
1592;DHT22;789;51.612;7.510;2023-09-18T07:54:56;23.00;1.00
1592;DHT22;789;51.612;7.510;2023-09-18T07:57:23;23.10;1.00
1592;DHT22;789;51.612;7.510;2023-09-18T07:59:51;23.20;1.00
1592;DHT22;789;51.612;7.510;2023-09-18T08:02:18;23.40;1.00
1592;DHT22;789;51.612;7.510;2023-09-18T08:04:49;23.60;1.00
1592;DHT22;789;51.612;7.510;2023-09-18T08:07:18;23.60;1.00
1592;DHT22;789;51.612;7.510;2023-09-18T08:09:49;23.70;1.00
1592;DHT22;789;51.612;7.510;2023-09-18T08:12:18;23.60;1.00
1592;DHT22;789;51.612;7.510;2023-09-18T08:14:50;23.50;1.00
1592;DHT22;789;51.612;7.510;2023-09-18T08:17:16;23.60;1.00
1592;DHT22;789;51.612;7.510;2023-09-18T08:19:44;23.20;1.00
1592;DHT22;789;51.612;7.510;2023-09-18T08:22:12;23.20;1.00
1592;DHT22;789;51.612;7.510;2023-09-18T08:24:51;23.20;1.00
1592;DHT22;789;51.612;7.510;2023-09-18T08:27:20;23.40;1.00
1592;DHT22;789;51.612;7.510;2023-09-18T08:29:49;23.40;1.00
1592;DHT22;789;51.612;7.510;2023-09-18T08:32:15;23.60;1.00
1592;DHT22;789;51.612;7.510;2023-09-18T08:34:45;23.70;1.00
1592;DHT22;789;51.612;7.510;2023-09-18T08:37:15;23.80;1.00
1592;DHT22;789;51.612;7.510;2023-09-18T08:39:44;23.90;1.00
1592;DHT22;789;51.612;7.510;2023-09-18T08:42:17;23.90;1.00
1592;DHT22;789;51.612;7.510;2023-09-18T08:44:49;23.90;1.00
1592;DHT22;789;51.612;7.510;2023-09-18T08:47:21;23.90;1.00
1592;DHT22;789;51.612;7.510;2023-09-18T08:49:54;23.90;1.00
1592;DHT22;789;51.612;7.510;2023-09-18T08:52:23;23.80;1.00
1592;DHT22;789;51.612;7.510;2023-09-18T08:54:53;23.80;1.00
1592;DHT22;789;51.612;7.510;2023-09-18T08:57:21;23.60;1.00
1592;DHT22;789;51.612;7.510;2023-09-18T08:59:50;23.60;1.00
1592;DHT22;789;51.612;7.510;2023-09-18T09:02:17;23.50;1.00
1592;DHT22;789;51.612;7.510;2023-09-18T09:04:44;23.50;1.00
1592;DHT22;789;51.612;7.510;2023-09-18T09:07:12;23.50;1.00
1592;DHT22;789;51.612;7.510;2023-09-18T09:09:39;23.40;1.00
1592;DHT22;789;51.612;7.510;2023-09-18T09:12:07;23.40;1.00
1592;DHT22;789;51.612;7.510;2023-09-18T09:14:34;23.40;1.00
1592;DHT22;789;51.612;7.510;2023-09-18T09:17:03;23.50;1.00
1592;DHT22;789;51.612;7.510;2023-09-18T09:19:31;23.50;1.00
1592;DHT22;789;51.612;7.510;2023-09-18T09:21:58;23.50;1.00
1592;DHT22;789;51.612;7.510;2023-09-18T09:24:39;23.60;1.00
1592;DHT22;789;51.612;7.510;2023-09-18T09:27:06;23.60;1.00
1592;DHT22;789;51.612;7.510;2023-09-18T09:29:33;23.80;1.00
1592;DHT22;789;51.612;7.510;2023-09-18T09:32:14;23.80;1.00
1592;DHT22;789;51.612;7.510;2023-09-18T09:34:42;24.30;1.00
1592;DHT22;789;51.612;7.510;2023-09-18T09:37:09;24.70;1.00
1592;DHT22;789;51.612;7.510;2023-09-18T09:39:46;25.40;1.00
1592;DHT22;789;51.612;7.510;2023-09-18T09:42:16;25.70;1.00
1592;DHT22;789;51.612;7.510;2023-09-18T09:44:48;25.70;1.00
1592;DHT22;789;51.612;7.510;2023-09-18T09:47:16;25.70;1.00
1592;DHT22;789;51.612;7.510;2023-09-18T09:49:46;25.80;1.00
1592;DHT22;789;51.612;7.510;2023-09-18T09:52:19;26.00;1.00
1592;DHT22;789;51.612;7.510;2023-09-18T09:54:48;26.20;1.00
1592;DHT22;789;51.612;7.510;2023-09-18T09:57:14;26.10;1.00
1592;DHT22;789;51.612;7.510;2023-09-18T09:59:41;26.00;1.00
1592;DHT22;789;51.612;7.510;2023-09-18T10:02:10;25.70;1.00
1592;DHT22;789;51.612;7.510;2023-09-18T10:04:47;25.50;1.00
1592;DHT22;789;51.612;7.510;2023-09-18T10:07:15;25.30;1.00
1592;DHT22;789;51.612;7.510;2023-09-18T10:09:45;25.30;1.00
1592;DHT22;789;51.612;7.510;2023-09-18T10:12:15;25.30;1.00
1592;DHT22;789;51.612;7.510;2023-09-18T10:14:47;25.20;1.00
1592;DHT22;789;51.612;7.510;2023-09-18T10:17:17;25.30;1.00
1592;DHT22;789;51.612;7.510;2023-09-18T10:19:54;25.30;1.00
1592;DHT22;789;51.612;7.510;2023-09-18T10:22:31;25.30;1.00
1592;DHT22;789;51.612;7.510;2023-09-18T10:25:10;25.30;1.00
1592;DHT22;789;51.612;7.510;2023-09-18T10:27:39;25.40;1.00
1592;DHT22;789;51.612;7.510;2023-09-18T10:30:09;25.50;1.00
1592;DHT22;789;51.612;7.510;2023-09-18T10:32:38;25.30;1.00
1592;DHT22;789;51.612;7.510;2023-09-18T10:35:08;25.10;1.00
1592;DHT22;789;51.612;7.510;2023-09-18T10:37:38;25.00;1.00
1592;DHT22;789;51.612;7.510;2023-09-18T10:40:16;25.00;1.00
1592;DHT22;789;51.612;7.510;2023-09-18T10:42:46;25.20;1.00
1592;DHT22;789;51.612;7.510;2023-09-18T10:45:13;25.50;1.00
1592;DHT22;789;51.612;7.510;2023-09-18T10:47:46;25.90;1.00
1592;DHT22;789;51.612;7.510;2023-09-18T10:50:23;26.60;1.00
1592;DHT22;789;51.612;7.510;2023-09-18T10:52:51;27.50;1.00
1592;DHT22;789;51.612;7.510;2023-09-18T10:55:20;28.10;1.00
1592;DHT22;789;51.612;7.510;2023-09-18T10:57:51;28.90;1.00
1592;DHT22;789;51.612;7.510;2023-09-18T11:00:20;29.80;1.00
1592;DHT22;789;51.612;7.510;2023-09-18T11:02:51;31.00;1.00
1592;DHT22;789;51.612;7.510;2023-09-18T11:05:32;32.40;1.00
1592;DHT22;789;51.612;7.510;2023-09-18T11:08:27;34.00;1.00
1592;DHT22;789;51.612;7.510;2023-09-18T11:10:58;35.40;1.00
1592;DHT22;789;51.612;7.510;2023-09-18T11:13:30;35.10;1.00
1592;DHT22;789;51.612;7.510;2023-09-18T11:16:01;34.80;1.00
1592;DHT22;789;51.612;7.510;2023-09-18T11:18:32;34.60;1.00
1592;DHT22;789;51.612;7.510;2023-09-18T11:21:08;34.10;1.00
1592;DHT22;789;51.612;7.510;2023-09-18T11:23:36;33.80;1.00
1592;DHT22;789;51.612;7.510;2023-09-18T11:26:04;33.30;1.00
1592;DHT22;789;51.612;7.510;2023-09-18T11:28:33;33.00;1.00
1592;DHT22;789;51.612;7.510;2023-09-18T11:31:00;32.70;1.00
1592;DHT22;789;51.612;7.510;2023-09-18T11:33:35;32.60;1.00
1592;DHT22;789;51.612;7.510;2023-09-18T11:36:05;32.30;1.00
1592;DHT22;789;51.612;7.510;2023-09-18T11:38:34;33.20;1.00
1592;DHT22;789;51.612;7.510;2023-09-18T11:41:19;34.50;1.00
1592;DHT22;789;51.612;7.510;2023-09-18T11:43:47;35.20;1.00
1592;DHT22;789;51.612;7.510;2023-09-18T11:46:20;35.70;1.00
1592;DHT22;789;51.612;7.510;2023-09-18T11:48:48;35.70;1.00
1592;DHT22;789;51.612;7.510;2023-09-18T11:51:21;34.90;1.00
1592;DHT22;789;51.612;7.510;2023-09-18T11:53:52;33.10;1.00
1592;DHT22;789;51.612;7.510;2023-09-18T11:56:20;32.30;1.00
1592;DHT22;789;51.612;7.510;2023-09-18T11:58:47;32.50;1.00
1592;DHT22;789;51.612;7.510;2023-09-18T12:01:15;32.60;1.00
1592;DHT22;789;51.612;7.510;2023-09-18T12:03:42;32.70;1.00
1592;DHT22;789;51.612;7.510;2023-09-18T12:06:10;32.50;1.00
1592;DHT22;789;51.612;7.510;2023-09-18T12:08:39;32.20;1.00
1592;DHT22;789;51.612;7.510;2023-09-18T12:11:07;31.60;1.00
1592;DHT22;789;51.612;7.510;2023-09-18T12:13:34;30.90;1.00
1592;DHT22;789;51.612;7.510;2023-09-18T12:16:15;30.30;1.00
1592;DHT22;789;51.612;7.510;2023-09-18T12:18:47;29.70;1.00
1592;DHT22;789;51.612;7.510;2023-09-18T12:21:17;29.20;1.00
1592;DHT22;789;51.612;7.510;2023-09-18T12:23:45;28.50;1.00
1592;DHT22;789;51.612;7.510;2023-09-18T12:26:15;28.20;1.00
1592;DHT22;789;51.612;7.510;2023-09-18T12:28:43;28.00;1.00
1592;DHT22;789;51.612;7.510;2023-09-18T12:31:17;27.80;1.00
1592;DHT22;789;51.612;7.510;2023-09-18T12:33:44;27.70;1.00
1592;DHT22;789;51.612;7.510;2023-09-18T12:36:18;27.80;1.00
1592;DHT22;789;51.612;7.510;2023-09-18T12:39:00;27.60;1.00
1592;DHT22;789;51.612;7.510;2023-09-18T12:41:35;27.40;1.00
1592;DHT22;789;51.612;7.510;2023-09-18T12:44:17;27.30;1.00
1592;DHT22;789;51.612;7.510;2023-09-18T12:46:45;27.20;1.00
1592;DHT22;789;51.612;7.510;2023-09-18T12:49:19;27.10;1.00
1592;DHT22;789;51.612;7.510;2023-09-18T12:51:57;27.10;1.00
1592;DHT22;789;51.612;7.510;2023-09-18T12:54:38;27.00;1.00
1592;DHT22;789;51.612;7.510;2023-09-18T12:57:10;26.80;1.00
1592;DHT22;789;51.612;7.510;2023-09-18T12:59:37;26.70;1.00
1592;DHT22;789;51.612;7.510;2023-09-18T13:02:05;26.60;1.00
1592;DHT22;789;51.612;7.510;2023-09-18T13:04:32;26.60;1.00
1592;DHT22;789;51.612;7.510;2023-09-18T13:07:09;26.70;1.00
1592;DHT22;789;51.612;7.510;2023-09-18T13:09:39;26.70;1.00
1592;DHT22;789;51.612;7.510;2023-09-18T13:12:14;26.90;1.00
1592;DHT22;789;51.612;7.510;2023-09-18T13:15:01;27.00;1.00
1592;DHT22;789;51.612;7.510;2023-09-18T13:17:40;26.80;1.00
1592;DHT22;789;51.612;7.510;2023-09-18T13:20:12;26.50;1.00
1592;DHT22;789;51.612;7.510;2023-09-18T13:22:50;26.10;1.00
1592;DHT22;789;51.612;7.510;2023-09-18T13:25:21;26.20;1.00
1592;DHT22;789;51.612;7.510;2023-09-18T13:27:51;26.00;1.00
1592;DHT22;789;51.612;7.510;2023-09-18T13:30:19;25.80;1.00
1592;DHT22;789;51.612;7.510;2023-09-18T13:32:50;25.80;1.00
1592;DHT22;789;51.612;7.510;2023-09-18T13:35:19;25.90;1.00
1592;DHT22;789;51.612;7.510;2023-09-18T13:37:46;26.10;1.00
1592;DHT22;789;51.612;7.510;2023-09-18T13:40:13;26.30;1.00
1592;DHT22;789;51.612;7.510;2023-09-18T13:42:39;26.40;1.00
1592;DHT22;789;51.612;7.510;2023-09-18T13:45:13;26.50;1.00
1592;DHT22;789;51.612;7.510;2023-09-18T13:47:42;26.50;1.00
1592;DHT22;789;51.612;7.510;2023-09-18T13:50:09;26.70;1.00
1592;DHT22;789;51.612;7.510;2023-09-18T13:52:38;26.60;1.00
1592;DHT22;789;51.612;7.510;2023-09-18T13:55:06;26.50;1.00
1592;DHT22;789;51.612;7.510;2023-09-18T13:57:34;26.50;1.00
1592;DHT22;789;51.612;7.510;2023-09-18T14:00:02;26.60;1.00
1592;DHT22;789;51.612;7.510;2023-09-18T14:02:31;26.50;1.00
1592;DHT22;789;51.612;7.510;2023-09-18T14:04:59;26.50;1.00
1592;DHT22;789;51.612;7.510;2023-09-18T14:07:25;26.50;1.00
1592;DHT22;789;51.612;7.510;2023-09-18T14:09:55;26.50;1.00
1592;DHT22;789;51.612;7.510;2023-09-18T14:12:21;26.40;1.00
1592;DHT22;789;51.612;7.510;2023-09-18T14:14:48;26.60;1.00
1592;DHT22;789;51.612;7.510;2023-09-18T14:17:16;26.70;1.00
1592;DHT22;789;51.612;7.510;2023-09-18T14:19:51;26.70;1.00
1592;DHT22;789;51.612;7.510;2023-09-18T14:22:19;26.50;1.00
1592;DHT22;789;51.612;7.510;2023-09-18T14:24:45;26.60;1.00
1592;DHT22;789;51.612;7.510;2023-09-18T14:27:13;26.50;1.00
1592;DHT22;789;51.612;7.510;2023-09-18T14:29:40;26.50;1.00
1592;DHT22;789;51.612;7.510;2023-09-18T14:32:07;26.30;1.00
1592;DHT22;789;51.612;7.510;2023-09-18T14:34:33;26.00;1.00
1592;DHT22;789;51.612;7.510;2023-09-18T14:37:02;25.90;1.00
1592;DHT22;789;51.612;7.510;2023-09-18T14:39:30;25.90;1.00
1592;DHT22;789;51.612;7.510;2023-09-18T14:41:57;25.90;1.00
1592;DHT22;789;51.612;7.510;2023-09-18T14:44:25;25.90;1.00
1592;DHT22;789;51.612;7.510;2023-09-18T14:46:52;26.00;1.00
1592;DHT22;789;51.612;7.510;2023-09-18T14:49:19;26.00;1.00
1592;DHT22;789;51.612;7.510;2023-09-18T14:51:47;26.00;1.00
1592;DHT22;789;51.612;7.510;2023-09-18T14:54:16;25.90;1.00
1592;DHT22;789;51.612;7.510;2023-09-18T14:56:43;25.90;1.00
1592;DHT22;789;51.612;7.510;2023-09-18T14:59:11;25.80;1.00
1592;DHT22;789;51.612;7.510;2023-09-18T15:01:38;25.90;1.00
1592;DHT22;789;51.612;7.510;2023-09-18T15:04:08;25.80;1.00
1592;DHT22;789;51.612;7.510;2023-09-18T15:06:35;25.90;1.00
1592;DHT22;789;51.612;7.510;2023-09-18T15:09:02;25.90;1.00
1592;DHT22;789;51.612;7.510;2023-09-18T15:11:31;25.80;1.00
1592;DHT22;789;51.612;7.510;2023-09-18T15:14:00;25.80;1.00
1592;DHT22;789;51.612;7.510;2023-09-18T15:16:27;25.70;1.00
1592;DHT22;789;51.612;7.510;2023-09-18T15:18:55;25.70;1.00
1592;DHT22;789;51.612;7.510;2023-09-18T15:21:24;25.70;1.00
1592;DHT22;789;51.612;7.510;2023-09-18T15:23:51;25.70;1.00
1592;DHT22;789;51.612;7.510;2023-09-18T15:26:17;25.70;1.00
1592;DHT22;789;51.612;7.510;2023-09-18T15:28:45;25.60;1.00
1592;DHT22;789;51.612;7.510;2023-09-18T15:31:14;25.60;1.00
1592;DHT22;789;51.612;7.510;2023-09-18T15:33:41;25.60;1.00
1592;DHT22;789;51.612;7.510;2023-09-18T15:36:10;25.60;1.00
1592;DHT22;789;51.612;7.510;2023-09-18T15:38:36;25.60;1.00
1592;DHT22;789;51.612;7.510;2023-09-18T15:41:03;25.70;1.00
1592;DHT22;789;51.612;7.510;2023-09-18T15:43:30;25.60;1.00
1592;DHT22;789;51.612;7.510;2023-09-18T15:46:00;25.70;1.00
1592;DHT22;789;51.612;7.510;2023-09-18T15:48:28;25.60;1.00
1592;DHT22;789;51.612;7.510;2023-09-18T15:50:55;25.70;1.00
1592;DHT22;789;51.612;7.510;2023-09-18T15:53:21;25.60;1.00
1592;DHT22;789;51.612;7.510;2023-09-18T15:55:48;25.70;1.00
1592;DHT22;789;51.612;7.510;2023-09-18T15:58:15;25.60;1.00
1592;DHT22;789;51.612;7.510;2023-09-18T16:00:45;25.70;1.00
1592;DHT22;789;51.612;7.510;2023-09-18T16:03:13;25.60;1.00
1592;DHT22;789;51.612;7.510;2023-09-18T16:05:41;25.70;1.00
1592;DHT22;789;51.612;7.510;2023-09-18T16:08:08;25.60;1.00
1592;DHT22;789;51.612;7.510;2023-09-18T16:10:37;25.60;1.00
1592;DHT22;789;51.612;7.510;2023-09-18T16:13:04;25.50;1.00
1592;DHT22;789;51.612;7.510;2023-09-18T16:15:31;25.40;1.00
1592;DHT22;789;51.612;7.510;2023-09-18T16:17:58;25.40;1.00
1592;DHT22;789;51.612;7.510;2023-09-18T16:20:32;25.40;1.00
1592;DHT22;789;51.612;7.510;2023-09-18T16:22:59;25.40;1.00
1592;DHT22;789;51.612;7.510;2023-09-18T16:25:26;25.30;1.00
1592;DHT22;789;51.612;7.510;2023-09-18T16:27:53;25.40;1.00
1592;DHT22;789;51.612;7.510;2023-09-18T16:30:20;25.30;1.00
1592;DHT22;789;51.612;7.510;2023-09-18T16:32:47;25.30;1.00
1592;DHT22;789;51.612;7.510;2023-09-18T16:35:15;25.30;1.00
1592;DHT22;789;51.612;7.510;2023-09-18T16:37:43;25.20;1.00
1592;DHT22;789;51.612;7.510;2023-09-18T16:40:12;25.30;1.00
1592;DHT22;789;51.612;7.510;2023-09-18T16:42:38;25.10;1.00
1592;DHT22;789;51.612;7.510;2023-09-18T16:45:06;25.10;1.00